Time;durP1;ratioP1;P1;durP2;ratioP2;P2;SDS_P1;SDS_P2;PMS_P1;PMS_P2;Temp;Humidity;BMP_temperature;BMP_pressure;BME280_temperature;BME280_humidity;BME280_pressure;Samples;Min_cycle;Max_cycle;Signal;HPM_P1;HPM_P2
2021/07/17 00:01:16;;;;;;;8.82;3.85;;;24.00;67.40;;;;;;5073669;28;20060;-73
2021/07/17 00:03:42;;;;;;;9.85;3.65;;;23.90;67.60;;;;;;5071672;28;20036;-75
2021/07/17 00:06:08;;;;;;;9.88;3.80;;;23.90;68.50;;;;;;5073483;28;20044;-75
2021/07/17 00:08:34;;;;;;;8.60;3.58;;;23.80;67.70;;;;;;5073220;28;20490;-75
2021/07/17 00:10:59;;;;;;;7.25;3.28;;;23.80;67.80;;;;;;5072055;28;20090;-74
2021/07/17 00:13:25;;;;;;;9.73;5.10;;;23.80;67.90;;;;;;5073499;28;20116;-73
2021/07/17 00:15:51;;;;;;;11.60;5.10;;;23.80;67.80;;;;;;5073415;28;20033;-74
2021/07/17 00:18:18;;;;;;;12.23;4.10;;;23.80;67.80;;;;;;5071970;28;20020;-72
2021/07/17 00:20:45;;;;;;;9.30;3.75;;;23.70;67.60;;;;;;5072230;28;20036;-72
2021/07/17 00:23:11;;;;;;;6.93;3.85;;;23.70;67.90;;;;;;5073231;28;20039;-74
2021/07/17 00:25:37;;;;;;;8.63;3.30;;;23.70;67.70;;;;;;5073103;28;20034;-73
2021/07/17 00:28:03;;;;;;;10.13;3.70;;;23.60;67.50;;;;;;5073129;28;20096;-71
2021/07/17 00:30:28;;;;;;;11.05;3.70;;;23.50;67.50;;;;;;5073191;28;20020;-74
2021/07/17 00:32:54;;;;;;;10.25;3.85;;;23.50;67.90;;;;;;5073744;28;20098;-74
2021/07/17 00:35:20;;;;;;;8.95;3.60;;;23.50;67.50;;;;;;5073463;28;20029;-72
2021/07/17 00:37:46;;;;;;;11.13;3.72;;;23.40;67.50;;;;;;5073421;28;20036;-73
2021/07/17 00:40:14;;;;;;;10.80;3.67;;;23.50;67.70;;;;;;5073711;28;20031;-72
2021/07/17 00:42:44;;;;;;;7.75;3.50;;;23.50;67.30;;;;;;5074446;28;20020;-75
2021/07/17 00:45:11;;;;;;;6.57;3.60;;;23.40;67.40;;;;;;5074241;28;20079;-73
2021/07/17 00:47:37;;;;;;;6.75;3.08;;;23.40;67.10;;;;;;5079037;28;20017;-72
2021/07/17 00:50:05;;;;;;;9.18;3.70;;;23.40;67.10;;;;;;5084089;28;20036;-73
2021/07/17 00:52:35;;;;;;;9.40;3.38;;;23.40;66.90;;;;;;5077152;28;20103;-73
2021/07/17 00:55:03;;;;;;;8.48;3.00;;;23.40;66.40;;;;;;5073643;28;20082;-73
2021/07/17 00:57:33;;;;;;;5.85;2.78;;;23.40;66.20;;;;;;5071698;28;20020;-73
2021/07/17 01:00:00;;;;;;;7.20;3.25;;;23.50;66.30;;;;;;5074148;28;20457;-74
2021/07/17 01:02:30;;;;;;;8.20;2.97;;;23.40;66.30;;;;;;5072255;28;20025;-75
2021/07/17 01:04:59;;;;;;;9.57;2.90;;;23.40;66.30;;;;;;5073388;28;20032;-74
2021/07/17 01:07:25;;;;;;;6.53;2.67;;;23.40;66.00;;;;;;5072874;28;20397;-72
2021/07/17 01:09:52;;;;;;;7.18;2.60;;;23.50;66.10;;;;;;5073309;28;20028;-72
2021/07/17 01:12:19;;;;;;;8.23;3.33;;;23.50;66.10;;;;;;5072941;28;20028;-71
2021/07/17 01:14:45;;;;;;;7.28;2.67;;;23.50;66.00;;;;;;5072796;28;20032;-71
2021/07/17 01:17:12;;;;;;;7.85;2.97;;;23.60;65.80;;;;;;5075767;28;20032;-72
2021/07/17 01:19:38;;;;;;;8.60;3.22;;;23.50;65.80;;;;;;5077062;28;20161;-73
2021/07/17 01:22:04;;;;;;;8.05;3.15;;;23.40;65.80;;;;;;5075263;28;20059;-73
2021/07/17 01:24:30;;;;;;;7.68;2.38;;;23.40;65.80;;;;;;5075234;28;20472;-73
2021/07/17 01:26:56;;;;;;;8.88;2.88;;;23.40;65.60;;;;;;5076238;28;20039;-72
2021/07/17 01:29:22;;;;;;;5.53;2.58;;;23.40;65.50;;;;;;5076393;28;20100;-71
2021/07/17 01:31:48;;;;;;;6.30;2.67;;;23.40;65.30;;;;;;5076206;28;20028;-73
2021/07/17 01:34:16;;;;;;;10.93;3.25;;;23.40;65.30;;;;;;5076368;28;20025;-72
2021/07/17 01:36:42;;;;;;;6.40;2.70;;;23.40;65.30;;;;;;5076016;28;20039;-72
2021/07/17 01:39:09;;;;;;;6.80;2.63;;;23.40;65.50;;;;;;5076330;28;20013;-72
2021/07/17 01:41:35;;;;;;;5.97;2.58;;;23.40;66.20;;;;;;5074781;28;20119;-72
2021/07/17 01:44:01;;;;;;;8.30;2.72;;;23.50;65.40;;;;;;5074496;28;20120;-71
2021/07/17 01:46:30;;;;;;;5.03;2.10;;;23.40;65.10;;;;;;5075787;28;20032;-72
2021/07/17 01:48:56;;;;;;;6.63;2.55;;;23.30;65.20;;;;;;5075823;28;20029;-72
2021/07/17 01:51:23;;;;;;;5.57;2.33;;;23.30;65.20;;;;;;5076068;28;20393;-72
2021/07/17 01:53:49;;;;;;;6.00;2.80;;;23.20;65.70;;;;;;5075875;28;20029;-72
2021/07/17 01:56:15;;;;;;;5.75;2.88;;;23.10;65.40;;;;;;5075896;28;20461;-71
2021/07/17 01:58:42;;;;;;;5.88;2.92;;;23.10;66.00;;;;;;5075890;28;20024;-72
2021/07/17 02:01:08;;;;;;;8.52;2.85;;;23.00;65.70;;;;;;5075840;28;20150;-71
2021/07/17 02:03:33;;;;;;;6.30;2.42;;;23.10;66.50;;;;;;5075962;28;20067;-72
2021/07/17 02:05:59;;;;;;;6.63;2.80;;;23.10;65.80;;;;;;5075552;28;20039;-70
2021/07/17 02:08:26;;;;;;;6.68;3.13;;;23.10;65.90;;;;;;5075354;28;20074;-72
2021/07/17 02:10:52;;;;;;;7.47;2.90;;;23.20;66.00;;;;;;5075586;28;20020;-71
2021/07/17 02:13:18;;;;;;;9.07;2.72;;;23.20;65.70;;;;;;5075120;28;20025;-71
2021/07/17 02:15:50;;;;;;;7.47;2.60;;;23.10;66.00;;;;;;5075471;28;20100;-70
2021/07/17 02:18:25;;;;;;;6.35;2.72;;;23.00;65.60;;;;;;5075332;28;20025;-72
2021/07/17 02:20:51;;;;;;;5.78;2.60;;;22.90;65.40;;;;;;5074065;28;20420;-71
2021/07/17 02:23:17;;;;;;;11.13;2.97;;;22.90;66.30;;;;;;5075366;28;20064;-72
2021/07/17 02:25:43;;;;;;;7.63;2.70;;;22.80;66.40;;;;;;5073897;28;20060;-71
2021/07/17 02:28:08;;;;;;;7.10;2.70;;;22.80;66.30;;;;;;5073402;28;20066;-71
2021/07/17 02:30:35;;;;;;;8.45;3.00;;;22.80;66.30;;;;;;5075130;28;20424;-72
2021/07/17 02:33:01;;;;;;;5.70;2.33;;;22.90;66.00;;;;;;5074910;28;20021;-71
2021/07/17 02:35:27;;;;;;;4.57;2.25;;;22.80;66.30;;;;;;5074230;28;20478;-73
2021/07/17 02:37:53;;;;;;;5.10;2.22;;;22.80;66.30;;;;;;5074758;28;20024;-72
2021/07/17 02:40:19;;;;;;;5.55;2.47;;;22.80;66.40;;;;;;5074207;28;20052;-71
2021/07/17 02:42:44;;;;;;;5.70;2.10;;;22.70;66.70;;;;;;5074473;28;20409;-72
2021/07/17 02:45:12;;;;;;;6.88;2.35;;;22.70;66.40;;;;;;5074179;28;20028;-72
2021/07/17 02:47:39;;;;;;;6.65;2.70;;;22.70;66.50;;;;;;5074709;28;20017;-72
2021/07/17 02:50:06;;;;;;;6.63;2.60;;;22.70;66.60;;;;;;5074191;28;20461;-71
2021/07/17 02:52:32;;;;;;;8.88;2.70;;;22.70;66.50;;;;;;5073145;28;20516;-71
2021/07/17 02:55:01;;;;;;;5.93;2.50;;;22.60;66.70;;;;;;5073868;28;20056;-71
2021/07/17 02:57:29;;;;;;;5.75;2.65;;;22.70;66.80;;;;;;5072597;28;20024;-72
2021/07/17 02:59:54;;;;;;;7.55;2.67;;;22.60;66.70;;;;;;5074392;28;20035;-74
2021/07/17 03:02:20;;;;;;;5.38;2.28;;;22.60;66.80;;;;;;5074122;28;20029;-72
2021/07/17 03:04:45;;;;;;;8.38;2.97;;;22.60;66.70;;;;;;5074028;28;20382;-72
2021/07/17 03:07:11;;;;;;;6.38;2.50;;;22.60;66.70;;;;;;5073672;28;20020;-71
2021/07/17 03:09:37;;;;;;;5.22;2.20;;;22.60;66.90;;;;;;5073903;28;20098;-73
2021/07/17 03:12:03;;;;;;;5.80;2.40;;;22.60;66.90;;;;;;5073658;28;20031;-71
2021/07/17 03:14:29;;;;;;;4.75;2.38;;;22.60;66.50;;;;;;5073934;28;20420;-71
2021/07/17 03:16:55;;;;;;;5.80;2.35;;;22.70;66.70;;;;;;5073663;28;20473;-71
2021/07/17 03:19:20;;;;;;;6.45;2.22;;;22.70;66.70;;;;;;5073764;28;20465;-71
2021/07/17 03:21:46;;;;;;;6.88;2.67;;;22.70;66.60;;;;;;5073656;28;20107;-72
2021/07/17 03:24:12;;;;;;;6.25;2.50;;;22.70;66.60;;;;;;5073666;28;20024;-71
2021/07/17 03:26:37;;;;;;;6.38;2.53;;;22.60;66.80;;;;;;5073513;28;20028;-73
2021/07/17 03:29:03;;;;;;;5.47;2.38;;;22.60;66.90;;;;;;5073392;28;20051;-71
2021/07/17 03:31:31;;;;;;;8.25;2.42;;;22.60;66.70;;;;;;5073602;28;20073;-71
2021/07/17 03:34:05;;;;;;;8.45;2.70;;;22.70;67.20;;;;;;5073509;28;20025;-72
2021/07/17 03:36:34;;;;;;;5.57;2.60;;;22.70;67.00;;;;;;5073259;28;20081;-75
2021/07/17 03:39:00;;;;;;;7.45;2.63;;;22.70;66.30;;;;;;5071429;28;20020;-72
2021/07/17 03:41:26;;;;;;;6.40;2.70;;;22.70;66.90;;;;;;5073447;28;20028;-74
2021/07/17 03:43:52;;;;;;;8.52;2.90;;;22.70;66.90;;;;;;5071804;28;20021;-72
2021/07/17 03:46:20;;;;;;;7.55;2.90;;;22.70;66.70;;;;;;5073185;28;20033;-72
2021/07/17 03:48:46;;;;;;;5.03;2.60;;;22.70;66.90;;;;;;5073385;28;20020;-73
2021/07/17 03:51:11;;;;;;;7.13;2.80;;;22.70;66.80;;;;;;5073179;28;20035;-71
2021/07/17 03:53:37;;;;;;;8.02;2.92;;;22.70;66.70;;;;;;5073231;28;20016;-71
2021/07/17 03:56:06;;;;;;;6.25;2.53;;;22.70;66.80;;;;;;5072878;28;20036;-71
2021/07/17 03:58:34;;;;;;;9.10;2.92;;;22.70;67.00;;;;;;5070939;28;20440;-72
2021/07/17 04:01:00;;;;;;;8.20;3.08;;;22.70;67.00;;;;;;5072779;28;20025;-72
2021/07/17 04:03:26;;;;;;;5.43;2.70;;;22.70;67.10;;;;;;5072916;28;20102;-71
2021/07/17 04:05:53;;;;;;;5.63;2.97;;;22.60;67.50;;;;;;5071517;28;20367;-72
2021/07/17 04:08:18;;;;;;;7.25;2.55;;;22.60;66.40;;;;;;5072768;28;20045;-72
2021/07/17 04:10:44;;;;;;;5.35;2.60;;;22.50;67.20;;;;;;5073000;28;20025;-72
2021/07/17 04:13:10;;;;;;;7.03;2.85;;;22.50;67.30;;;;;;5072952;28;20105;-72
2021/07/17 04:15:36;;;;;;;4.78;2.53;;;22.50;67.50;;;;;;5072490;28;20061;-71
2021/07/17 04:18:03;;;;;;;6.38;2.78;;;22.40;67.20;;;;;;5072579;28;20048;-72
2021/07/17 04:20:28;;;;;;;5.70;2.60;;;22.40;67.60;;;;;;5072773;28;20086;-72
2021/07/17 04:22:54;;;;;;;5.07;2.33;;;22.40;68.10;;;;;;5071193;28;20100;-72
2021/07/17 04:25:20;;;;;;;5.68;2.70;;;22.40;68.80;;;;;;5072351;28;20036;-72
2021/07/17 04:27:45;;;;;;;6.93;2.97;;;22.30;68.70;;;;;;5072261;28;20107;-72
2021/07/17 04:30:12;;;;;;;5.95;2.50;;;22.30;69.20;;;;;;5072547;28;20025;-71
2021/07/17 04:32:37;;;;;;;9.82;2.72;;;22.20;69.00;;;;;;5072669;28;20035;-72
2021/07/17 04:35:08;;;;;;;6.13;2.45;;;22.20;68.10;;;;;;5071094;28;20020;-72
2021/07/17 04:37:34;;;;;;;5.75;2.75;;;22.20;68.70;;;;;;5072397;28;20031;-71
2021/07/17 04:40:00;;;;;;;6.25;2.67;;;22.20;68.80;;;;;;5072420;28;20099;-72
2021/07/17 04:42:26;;;;;;;6.68;2.70;;;22.20;69.70;;;;;;5072536;28;20450;-72
2021/07/17 04:44:51;;;;;;;7.43;2.70;;;22.20;68.90;;;;;;5072473;28;20116;-72
2021/07/17 04:47:18;;;;;;;6.05;2.47;;;22.10;68.80;;;;;;5072175;28;20155;-72
2021/07/17 04:49:43;;;;;;;5.97;2.40;;;22.10;70.00;;;;;;5072864;28;20055;-72
2021/07/17 04:52:09;;;;;;;5.82;2.72;;;22.20;69.70;;;;;;5076425;28;20024;-71
2021/07/17 04:54:35;;;;;;;7.40;2.47;;;22.20;69.60;;;;;;5074750;28;20021;-72
2021/07/17 04:57:00;;;;;;;7.63;3.05;;;22.20;68.80;;;;;;5076109;28;20146;-72
2021/07/17 04:59:26;;;;;;;8.60;3.05;;;22.30;69.60;;;;;;5076443;28;20377;-72
2021/07/17 05:01:52;;;;;;;9.40;2.80;;;22.30;69.40;;;;;;5076213;28;20035;-73
2021/07/17 05:04:17;;;;;;;9.18;2.90;;;22.40;68.90;;;;;;5076169;28;20052;-73
2021/07/17 05:06:43;;;;;;;5.90;2.42;;;22.50;69.60;;;;;;5076054;28;20446;-72
2021/07/17 05:09:09;;;;;;;6.03;2.70;;;22.60;69.30;;;;;;5076165;28;20050;-73
2021/07/17 05:11:36;;;;;;;7.07;3.10;;;22.70;69.10;;;;;;5076392;28;20366;-72
2021/07/17 05:14:01;;;;;;;5.35;2.60;;;22.60;68.80;;;;;;5076022;28;20028;-72
2021/07/17 05:16:27;;;;;;;4.85;2.55;;;22.70;69.10;;;;;;5075929;28;20028;-71
2021/07/17 05:18:53;;;;;;;8.65;2.70;;;22.60;68.90;;;;;;5075637;28;20481;-73
2021/07/17 05:21:21;;;;;;;7.20;2.90;;;22.70;68.90;;;;;;5075945;28;20484;-72
2021/07/17 05:23:48;;;;;;;11.73;3.10;;;22.80;68.70;;;;;;5076000;28;20028;-76
2021/07/17 05:26:14;;;;;;;6.28;2.80;;;23.00;66.50;;;;;;5075775;28;20093;-74
2021/07/17 05:28:39;;;;;;;6.05;2.70;;;23.40;67.80;;;;;;5075799;28;20431;-76
2021/07/17 05:31:05;;;;;;;6.70;2.95;;;23.80;66.60;;;;;;5076110;28;20085;-75
2021/07/17 05:33:31;;;;;;;7.22;3.20;;;24.20;65.30;;;;;;5075912;28;20100;-74
2021/07/17 05:35:57;;;;;;;7.05;2.72;;;24.50;64.20;;;;;;5075751;28;20036;-77
2021/07/17 05:38:25;;;;;;;10.10;3.10;;;24.90;63.20;;;;;;5075703;28;20013;-75
2021/07/17 05:40:50;;;;;;;7.57;2.70;;;25.30;62.20;;;;;;5074284;28;20115;-76
2021/07/17 05:43:16;;;;;;;6.68;2.47;;;25.50;60.70;;;;;;5075326;28;20020;-75
2021/07/17 05:45:42;;;;;;;6.25;2.60;;;25.70;60.20;;;;;;5075450;28;20045;-75
2021/07/17 05:48:07;;;;;;;7.57;2.75;;;25.80;59.40;;;;;;5075500;28;20497;-75
2021/07/17 05:50:33;;;;;;;5.72;2.88;;;25.90;58.90;;;;;;5074137;28;20414;-76
2021/07/17 05:53:05;;;;;;;5.60;2.65;;;26.10;58.20;;;;;;5076398;28;20388;-76
2021/07/17 05:55:30;;;;;;;6.32;2.67;;;26.50;57.10;;;;;;5075367;28;20028;-76
2021/07/17 05:57:56;;;;;;;6.03;2.50;;;26.50;56.50;;;;;;5075018;28;20032;-73
2021/07/17 06:00:22;;;;;;;6.32;2.50;;;26.50;56.20;;;;;;5074011;28;20082;-73
2021/07/17 06:02:48;;;;;;;5.65;2.30;;;26.40;56.30;;;;;;5073874;28;20035;-73
2021/07/17 06:05:13;;;;;;;6.82;2.75;;;26.40;56.10;;;;;;5074656;28;20481;-73
2021/07/17 06:07:41;;;;;;;9.02;2.78;;;26.50;56.00;;;;;;5074607;28;20419;-74
2021/07/17 06:10:07;;;;;;;5.32;2.20;;;26.50;55.70;;;;;;5074690;28;20029;-73
2021/07/17 06:12:33;;;;;;;6.38;2.88;;;26.60;55.30;;;;;;5074531;28;20048;-74
2021/07/17 06:15:00;;;;;;;6.60;2.47;;;26.50;55.00;;;;;;5074266;28;20107;-75
2021/07/17 06:17:25;;;;;;;9.88;2.50;;;26.60;55.00;;;;;;5074286;28;20477;-74
2021/07/17 06:19:51;;;;;;;7.05;2.35;;;26.70;54.60;;;;;;5074259;28;20053;-76
2021/07/17 06:22:17;;;;;;;4.65;2.35;;;26.80;54.80;;;;;;5074414;28;20384;-71
2021/07/17 06:24:43;;;;;;;5.72;2.53;;;26.90;54.60;;;;;;5074166;28;20130;-75
2021/07/17 06:27:09;;;;;;;6.38;2.90;;;26.90;54.60;;;;;;5072666;28;20085;-73
2021/07/17 06:29:36;;;;;;;7.43;2.55;;;27.10;54.20;;;;;;5074558;28;20470;-74
2021/07/17 06:32:03;;;;;;;6.32;2.50;;;27.10;53.80;;;;;;5073010;28;20033;-76
2021/07/17 06:34:29;;;;;;;10.32;2.20;;;27.20;53.50;;;;;;5074155;28;20082;-74
2021/07/17 06:36:55;;;;;;;8.10;2.40;;;27.20;53.10;;;;;;5074153;28;20024;-73
2021/07/17 06:39:20;;;;;;;4.68;2.28;;;27.30;53.00;;;;;;5074122;28;20028;-77
2021/07/17 06:41:49;;;;;;;7.40;2.40;;;27.30;52.80;;;;;;5074235;28;20051;-73
2021/07/17 06:44:17;;;;;;;5.03;2.15;;;27.20;52.30;;;;;;5074409;28;20120;-75
2021/07/17 06:46:43;;;;;;;4.80;2.00;;;27.30;52.60;;;;;;5074710;28;20033;-73
2021/07/17 06:49:08;;;;;;;6.03;2.47;;;27.50;52.50;;;;;;5074255;28;20492;-72
2021/07/17 06:51:35;;;;;;;7.40;2.10;;;27.60;52.40;;;;;;5074020;28;20113;-72
2021/07/17 06:54:01;;;;;;;8.25;2.53;;;27.60;52.40;;;;;;5073799;28;20056;-73
2021/07/17 06:56:27;;;;;;;4.43;2.20;;;27.70;52.00;;;;;;5073850;28;20029;-73
2021/07/17 06:58:53;;;;;;;8.32;2.70;;;27.70;52.10;;;;;;5073737;28;20335;-73
2021/07/17 07:01:23;;;;;;;6.55;2.35;;;27.40;52.10;;;;;;5073729;28;20488;-73
2021/07/17 07:03:49;;;;;;;5.15;2.00;;;27.30;53.20;;;;;;5072311;28;20346;-72
2021/07/17 07:06:14;;;;;;;5.40;2.25;;;27.10;52.30;;;;;;5073561;28;20106;-73
2021/07/17 07:08:40;;;;;;;16.08;2.53;;;27.20;52.20;;;;;;5073521;28;20076;-72
2021/07/17 07:11:06;;;;;;;4.20;2.20;;;27.30;52.00;;;;;;5073755;28;20036;-72
2021/07/17 07:13:32;;;;;;;6.20;2.47;;;27.60;51.70;;;;;;5072401;28;20357;-74
2021/07/17 07:15:57;;;;;;;8.68;2.38;;;27.60;51.40;;;;;;5072168;28;20075;-72
2021/07/17 07:18:23;;;;;;;7.38;2.40;;;27.50;51.60;;;;;;5073482;28;20024;-73
2021/07/17 07:20:49;;;;;;;4.50;1.90;;;27.40;51.60;;;;;;5073223;28;20108;-73
2021/07/17 07:23:15;;;;;;;7.05;2.03;;;27.50;51.50;;;;;;5073332;28;20469;-73
2021/07/17 07:25:42;;;;;;;6.18;2.60;;;27.40;51.40;;;;;;5073208;28;20406;-72
2021/07/17 07:28:08;;;;;;;6.60;2.80;;;27.40;51.60;;;;;;5073077;28;20394;-73
2021/07/17 07:30:34;;;;;;;9.50;2.55;;;27.30;51.70;;;;;;5073263;28;20460;-74
2021/07/17 07:33:00;;;;;;;5.75;2.33;;;27.30;51.80;;;;;;5073328;28;20013;-73
2021/07/17 07:35:26;;;;;;;6.05;2.30;;;27.50;51.80;;;;;;5073369;28;20020;-74
2021/07/17 07:37:53;;;;;;;6.05;2.70;;;27.70;51.60;;;;;;5073275;28;20021;-74
2021/07/17 07:40:20;;;;;;;7.72;2.72;;;27.90;51.30;;;;;;5073129;28;20036;-75
2021/07/17 07:42:47;;;;;;;7.57;2.58;;;28.10;50.90;;;;;;5072817;28;20024;-72
2021/07/17 07:45:13;;;;;;;5.03;2.22;;;28.30;51.30;;;;;;5072812;28;20501;-76
2021/07/17 07:47:39;;;;;;;8.00;2.58;;;28.40;51.20;;;;;;5072909;28;20027;-76
2021/07/17 07:50:07;;;;;;;7.88;2.55;;;28.60;51.10;;;;;;5072902;28;20032;-77
2021/07/17 07:52:33;;;;;;;5.80;2.50;;;28.40;50.80;;;;;;5073030;28;20389;-77
2021/07/17 07:54:59;;;;;;;5.35;2.40;;;28.10;51.20;;;;;;5072982;28;20033;-79
2021/07/17 07:57:26;;;;;;;6.53;2.45;;;28.00;51.50;;;;;;5073067;28;20488;-77
2021/07/17 07:59:52;;;;;;;6.82;2.45;;;27.90;51.50;;;;;;5073369;28;20024;-77
2021/07/17 08:02:35;;;;;;;5.97;2.30;;;28.00;51.60;;;;;;5075870;28;20353;-75
2021/07/17 08:05:02;;;;;;;5.72;2.42;;;28.00;51.40;;;;;;5074763;28;20040;-76
2021/07/17 08:07:28;;;;;;;8.20;3.22;;;27.90;51.80;;;;;;5072881;28;20405;-74
2021/07/17 08:09:54;;;;;;;7.13;2.63;;;28.00;51.60;;;;;;5073070;28;20111;-77
2021/07/17 08:12:25;;;;;;;7.20;2.17;;;28.20;51.40;;;;;;5073268;28;20109;-78
2021/07/17 08:14:51;;;;;;;5.47;2.20;;;28.20;51.50;;;;;;5072172;28;20028;-78
2021/07/17 08:17:16;;;;;;;7.18;2.22;;;28.20;51.30;;;;;;5054997;28;20037;-75
2021/07/17 08:19:42;;;;;;;6.57;2.90;;;28.20;51.10;;;;;;5072853;28;20394;-77
2021/07/17 08:22:08;;;;;;;9.13;3.30;;;28.10;51.40;;;;;;5072773;28;20028;-75
2021/07/17 08:24:34;;;;;;;9.27;2.42;;;28.00;51.40;;;;;;5072413;28;20620;-77
2021/07/17 08:26:59;;;;;;;8.60;2.88;;;28.00;51.70;;;;;;5072250;28;20025;-76
2021/07/17 08:29:25;;;;;;;5.00;2.63;;;28.10;51.40;;;;;;5072386;28;20074;-76
2021/07/17 08:31:51;;;;;;;5.50;2.50;;;28.10;51.30;;;;;;5072852;28;20055;-76
2021/07/17 08:34:17;;;;;;;6.32;2.70;;;28.00;51.30;;;;;;5071349;28;20052;-77
2021/07/17 08:36:42;;;;;;;10.20;3.90;;;28.00;51.60;;;;;;5072350;28;20386;-76
2021/07/17 08:39:08;;;;;;;7.15;2.90;;;28.10;51.40;;;;;;5072467;28;20541;-78
2021/07/17 08:41:34;;;;;;;4.97;2.78;;;28.10;51.60;;;;;;5072645;28;20081;-76
2021/07/17 08:44:01;;;;;;;6.75;2.92;;;27.90;51.30;;;;;;5071172;28;20515;-75
2021/07/17 08:46:27;;;;;;;6.55;2.53;;;27.80;51.30;;;;;;5072677;28;20040;-78
2021/07/17 08:48:55;;;;;;;8.57;3.15;;;27.90;51.60;;;;;;5071034;28;20029;-77
2021/07/17 08:51:21;;;;;;;6.30;2.28;;;27.90;51.60;;;;;;5072302;28;20496;-75
2021/07/17 08:53:48;;;;;;;12.65;2.90;;;27.70;51.30;;;;;;5071220;28;20025;-75
2021/07/17 08:56:17;;;;;;;8.25;2.92;;;27.60;51.20;;;;;;5070960;28;20041;-77
2021/07/17 08:58:43;;;;;;;4.82;2.40;;;27.60;51.20;;;;;;5072411;28;20043;-76
2021/07/17 09:01:09;;;;;;;6.20;2.47;;;27.60;51.20;;;;;;5072333;28;20032;-76
2021/07/17 09:03:34;;;;;;;6.97;2.35;;;27.60;51.40;;;;;;5072176;28;20474;-77
2021/07/17 09:06:01;;;;;;;6.18;2.67;;;27.60;51.30;;;;;;5072055;28;20037;-75
2021/07/17 09:08:27;;;;;;;3.70;2.25;;;27.50;51.00;;;;;;5071985;28;20036;-73
2021/07/17 09:10:54;;;;;;;6.22;2.58;;;27.50;51.50;;;;;;5072104;28;20029;-74
2021/07/17 09:13:23;;;;;;;7.80;2.50;;;27.50;51.40;;;;;;5072000;28;20107;-72
2021/07/17 09:15:48;;;;;;;8.38;2.33;;;27.50;51.20;;;;;;5071646;28;20154;-73
2021/07/17 09:18:23;;;;;;;4.57;1.92;;;27.60;51.40;;;;;;5071812;28;20203;-72
2021/07/17 09:21:18;;;;;;;8.40;2.40;;;27.60;50.90;;;;;;5071831;28;20029;-73
2021/07/17 09:23:50;;;;;;;6.05;2.30;;;27.60;50.90;;;;;;5072042;28;20116;-74
2021/07/17 09:26:21;;;;;;;5.55;2.15;;;27.60;51.20;;;;;;5071600;28;20036;-73
2021/07/17 09:29:07;;;;;;;6.07;2.05;;;27.60;51.00;;;;;;5071800;28;20124;-72
2021/07/17 09:31:38;;;;;;;5.03;1.92;;;27.60;50.40;;;;;;5072031;28;20036;-73
2021/07/17 09:34:12;;;;;;;5.13;2.00;;;27.60;50.70;;;;;;5071852;28;20094;-73
2021/07/17 09:37:07;;;;;;;5.28;1.95;;;27.70;50.80;;;;;;5072240;28;20043;-73
2021/07/17 09:39:49;;;;;;;5.00;1.90;;;27.70;50.30;;;;;;5075206;28;20025;-73
2021/07/17 09:42:19;;;;;;;4.88;1.90;;;27.70;50.40;;;;;;5074111;28;20051;-74
2021/07/17 09:44:50;;;;;;;9.63;2.65;;;27.80;50.00;;;;;;5075217;28;20032;-75
2021/07/17 09:47:21;;;;;;;3.00;1.92;;;27.90;50.80;;;;;;5075325;28;20108;-75
2021/07/17 09:49:47;;;;;;;7.03;1.92;;;27.90;50.80;;;;;;5075281;28;20020;-77
2021/07/17 09:52:17;;;;;;;5.60;1.90;;;28.00;50.80;;;;;;5075351;28;20028;-74
2021/07/17 09:55:12;;;;;;;4.40;1.88;;;28.00;49.60;;;;;;5075594;28;20029;-78
2021/07/17 09:57:38;;;;;;;8.00;2.08;;;28.00;50.10;;;;;;5075997;28;20128;-77
2021/07/17 10:00:19;;;;;;;6.07;1.80;;;28.10;50.40;;;;;;5074539;28;20039;-78
2021/07/17 10:02:45;;;;;;;4.43;1.70;;;28.00;50.40;;;;;;5075769;28;20125;-79
2021/07/17 10:05:15;;;;;;;5.97;2.05;;;28.00;50.60;;;;;;5075647;28;20465;-77
2021/07/17 10:07:41;;;;;;;5.90;2.05;;;28.00;50.40;;;;;;5075278;28;20462;-75
2021/07/17 10:10:07;;;;;;;4.43;2.08;;;28.00;50.80;;;;;;5077201;28;20039;-75
2021/07/17 10:12:35;;;;;;;4.82;1.83;;;27.90;50.70;;;;;;5075781;28;20116;-73
2021/07/17 10:15:21;;;;;;;8.05;2.60;;;28.00;50.80;;;;;;5074770;28;20100;-75
2021/07/17 10:17:49;;;;;;;5.05;2.20;;;27.90;50.90;;;;;;5071193;28;20159;-72
2021/07/17 10:20:16;;;;;;;6.07;2.20;;;27.80;50.70;;;;;;5074563;28;20028;-75
2021/07/17 10:22:43;;;;;;;5.20;2.10;;;27.80;50.80;;;;;;5074773;28;20089;-75
2021/07/17 10:25:12;;;;;;;4.95;2.05;;;27.90;50.80;;;;;;5074818;28;20038;-76
2021/07/17 10:27:38;;;;;;;3.67;1.90;;;27.90;50.80;;;;;;5074561;28;20028;-76
2021/07/17 10:30:05;;;;;;;5.15;1.73;;;27.90;50.90;;;;;;5074736;28;20042;-76
2021/07/17 10:32:31;;;;;;;7.57;2.50;;;27.90;50.60;;;;;;5073043;28;20036;-76
2021/07/17 10:34:57;;;;;;;8.95;1.85;;;27.90;50.80;;;;;;5074552;28;20021;-76
2021/07/17 10:37:29;;;;;;;5.18;1.95;;;27.90;51.10;;;;;;5073208;28;20033;-73
2021/07/17 10:40:08;;;;;;;3.95;1.80;;;27.90;50.70;;;;;;5074078;28;20020;-74
2021/07/17 10:42:35;;;;;;;8.38;2.00;;;27.90;49.50;;;;;;5074264;28;20047;-73
2021/07/17 10:45:04;;;;;;;5.75;2.17;;;28.00;50.70;;;;;;5074354;28;20490;-72
2021/07/17 10:47:38;;;;;;;5.50;2.05;;;28.10;50.80;;;;;;5073853;28;20043;-74
2021/07/17 10:50:12;;;;;;;7.32;2.50;;;28.20;50.40;;;;;;5074217;28;20450;-73
2021/07/17 10:52:43;;;;;;;6.07;1.85;;;28.20;49.50;;;;;;5072770;28;20093;-71
2021/07/17 10:55:28;;;;;;;2.20;1.70;;;28.30;50.60;;;;;;5074106;28;20029;-73
2021/07/17 10:57:59;;;;;;;4.28;2.08;;;28.40;50.30;;;;;;5073641;28;20025;-73
2021/07/17 11:00:44;;;;;;;3.25;1.90;;;28.40;50.60;;;;;;5073967;28;20016;-73
2021/07/17 11:03:28;;;;;;;3.05;1.55;;;28.50;50.10;;;;;;5073493;28;20434;-71
2021/07/17 11:05:57;;;;;;;4.60;1.65;;;28.50;49.30;;;;;;5073312;28;20021;-71
2021/07/17 11:08:28;;;;;;;3.28;1.50;;;28.40;50.20;;;;;;5073745;28;20044;-73
2021/07/17 11:10:54;;;;;;;4.93;1.73;;;28.30;49.60;;;;;;5072539;28;20029;-72
2021/07/17 11:13:34;;;;;;;7.75;2.05;;;28.30;49.90;;;;;;5073737;28;20031;-73
2021/07/17 11:16:01;;;;;;;6.68;2.13;;;28.20;50.10;;;;;;5073598;28;20446;-73
2021/07/17 11:18:34;;;;;;;6.63;2.10;;;28.20;50.20;;;;;;5072550;28;20047;-73
2021/07/17 11:21:01;;;;;;;;;;;28.10;49.10;;;;;;5072884;28;20017;-71
2021/07/17 11:23:39;;;;;;;8.55;2.10;;;28.00;49.80;;;;;;5073764;28;20059;-73
2021/07/17 11:26:11;;;;;;;4.45;1.85;;;28.00;49.10;;;;;;5073377;28;20041;-71
2021/07/17 11:29:02;;;;;;;7.33;2.10;;;27.80;50.00;;;;;;5073394;28;20028;-70
2021/07/17 11:31:27;;;;;;;3.17;1.85;;;27.70;49.30;;;;;;5073271;28;20109;-74
2021/07/17 11:34:14;;;;;;;5.90;2.35;;;27.50;49.90;;;;;;5073337;28;20036;-73
2021/07/17 11:36:48;;;;;;;8.05;2.10;;;27.50;49.80;;;;;;5072952;28;20496;-71
2021/07/17 11:39:21;;;;;;;4.85;2.22;;;27.30;49.90;;;;;;5073276;28;20021;-73
2021/07/17 11:41:47;;;;;;;4.77;2.27;;;27.20;50.20;;;;;;5073207;28;20029;-72
2021/07/17 11:44:17;;;;;;;6.47;2.20;;;27.10;50.20;;;;;;5073392;28;20052;-74
2021/07/17 11:47:05;;;;;;;8.55;2.70;;;27.10;50.30;;;;;;5071616;28;20386;-73
2021/07/17 11:49:37;;;;;;;4.13;2.60;;;27.00;49.00;;;;;;5073241;28;20537;-72
2021/07/17 11:52:06;;;;;;;8.32;3.22;;;27.00;49.70;;;;;;5073132;28;20031;-72
2021/07/17 11:54:36;;;;;;;7.45;2.55;;;26.90;49.80;;;;;;5071805;28;20458;-71
2021/07/17 11:57:35;;;;;;;6.85;2.90;;;26.90;48.40;;;;;;5072612;28;20373;-71
2021/07/17 12:00:06;;;;;;;6.70;2.45;;;26.90;49.00;;;;;;5059257;28;20389;-73
2021/07/17 12:02:39;;;;;;;4.22;2.45;;;26.90;49.20;;;;;;5072875;28;20024;-73
2021/07/17 12:05:08;;;;;;;5.10;2.50;;;26.80;49.80;;;;;;5072741;28;20511;-72
2021/07/17 12:07:37;;;;;;;3.95;2.40;;;26.80;50.20;;;;;;5071341;28;20569;-73
2021/07/17 12:10:07;;;;;;;5.68;2.55;;;26.80;50.40;;;;;;5073001;28;20024;-73
2021/07/17 12:12:39;;;;;;;6.97;2.60;;;26.80;50.10;;;;;;5071460;28;20056;-73
2021/07/17 12:15:22;;;;;;;7.97;2.60;;;26.80;49.50;;;;;;5072938;28;20366;-76
2021/07/17 12:17:49;;;;;;;4.25;2.72;;;26.80;49.50;;;;;;5073022;28;20040;-73
2021/07/17 12:20:30;;;;;;;9.13;2.50;;;26.80;49.40;;;;;;5072740;28;20032;-72
2021/07/17 12:23:15;;;;;;;6.47;2.75;;;26.80;49.40;;;;;;5072834;28;20031;-73
2021/07/17 12:25:59;;;;;;;4.47;2.35;;;26.80;49.30;;;;;;5072553;28;20055;-73
2021/07/17 12:28:29;;;;;;;7.10;2.55;;;26.80;49.90;;;;;;5072526;28;20059;-72
2021/07/17 12:30:56;;;;;;;6.75;2.80;;;26.80;51.30;;;;;;5072730;28;20021;-74
2021/07/17 12:33:23;;;;;;;5.97;2.80;;;26.70;51.60;;;;;;5071330;28;20063;-72
2021/07/17 12:36:00;;;;;;;4.70;2.70;;;26.70;52.20;;;;;;5071242;28;20024;-73
2021/07/17 12:38:27;;;;;;;11.73;2.92;;;26.70;51.80;;;;;;5071117;28;20036;-73
2021/07/17 12:41:02;;;;;;;4.93;3.00;;;26.50;53.60;;;;;;5072341;28;20032;-73
2021/07/17 12:43:36;;;;;;;5.00;2.75;;;26.30;54.20;;;;;;5072349;28;20032;-75
2021/07/17 12:46:11;;;;;;;6.90;3.10;;;26.10;55.30;;;;;;5072262;28;20108;-72
2021/07/17 12:48:45;;;;;;;6.53;2.83;;;25.90;54.10;;;;;;5072372;28;20509;-72
2021/07/17 12:51:17;;;;;;;6.72;2.58;;;25.80;54.80;;;;;;5072459;28;20031;-73